FZAA

Kinshasa/Ndjili International Airport

Airport
ICAO code
FZAA
IATA Code
FIH
Summary
ICAO Region
AFI
Location

Kinshasa, Kinshasa

Serving
Kinshasa
Elevation
1027 ft
Coordinates
4° 23' 9" S , 15° 26' 40" E
Metar
Observation
FZAA 130300Z 00000KT 6000 FEW014 20/17 Q1014 NOSIG
Station
Kinshasa / N'Djili
Date/Time
2022-08-13 03:00:00
Wind direction
Wind speed
00 kts
Lowest cloud amount
few clouds
Temperature
20°C
Dew point
17°C
Humidity
82%
QNH
1014 hPa
Weather condition
n/a

N'djili Airport, also known as N'Djili International Airport and Kinshasa International Airport, serves the city of Kinshasa

Runways

Designator Length Width Surface Rops
6/24 4700 60 CON Yes/Yes

Airport map

Aerial View

SKYbrary Partners:

Safety knowledge contributed by: